Data for 06/09/2018

Time Sea-Level Adjusted Pressure Absolute Pressure Temperature Relative Humidity Dew Point   
(mb) (inHg) (mb) (inHg) (C) (F) (%) (C) (F)
00:05 1018 30.06 847 25.01 16.8 62.3 51 6.8 44.3
00:10 1018 30.06 847 25.01 16.8 62.2 52 6.9 44.3
00:15 1018 30.06 847 25.01 16.8 62.2 52 7.1 44.7
00:20 1017 30.03 847 25.01 16.6 61.8 53 7 44.6
00:25 1017 30.03 847 25.01 16.4 61.5 53 7 44.6
00:30 1017 30.03 847 25.01 16.4 61.5 54 7 44.7
00:35 1017 30.03 846 24.98 16.3 61.4 54 7 44.6
00:40 1017 30.03 846 24.98 16.2 61.2 54 7 44.6
00:45 1017 30.03 846 24.98 16.3 61.3 53 6.8 44.3
00:50 1017 30.03 846 24.98 16.5 61.6 53 7 44.6
00:55 1017 30.03 846 24.98 16.5 61.6 53 7 44.6
01:00 1017 30.03 846 24.98 16.4 61.4 54 7.1 44.7
01:05 1017 30.03 846 24.98 16.2 61.2 54 7 44.6
01:10 1017 30.03 846 24.98 16.3 61.3 53 6.8 44.3
01:15 1017 30.03 846 24.98 16.3 61.3 54 6.9 44.4
01:20 1017 30.03 846 24.98 16.3 61.3 53 6.9 44.4
01:25 1017 30.03 846 24.98 16.3 61.3 53 6.8 44.2
01:30 1017 30.03 846 24.98 16.3 61.3 53 6.9 44.4
01:35 1017 30.03 846 24.98 16.1 61.1 54 6.9 44.4
01:40 1017 30.03 846 24.98 16 60.8 54 6.8 44.2
01:45 1017 30.03 846 24.98 15.9 60.7 54 6.8 44.3
01:50 1017 30.03 846 24.98 15.9 60.6 55 6.9 44.4
01:55 1017 30.03 846 24.98 15.7 60.3 55 6.7 44.1
02:00 1017 30.03 846 24.98 15.7 60.2 54 6.6 43.8
02:05 1017 30.03 846 24.98 15.9 60.6 53 6.5 43.7
02:10 1017 30.03 846 24.98 16 60.8 53 6.5 43.8
02:15 1017 30.03 846 24.98 16 60.7 53 6.5 43.7
02:20 1017 30.03 846 24.98 15.9 60.6 54 6.6 43.8
02:25 1017 30.03 846 24.98 15.9 60.6 53 6.4 43.5
02:30 1017 30.03 846 24.98 15.9 60.7 53 6.4 43.5
02:35 1017 30.03 846 24.98 15.9 60.7 53 6.4 43.4
02:40 1017 30.03 846 24.98 15.9 60.7 52 6.3 43.3
02:45 1017 30.03 846 24.98 15.9 60.6 53 6.3 43.4
02:50 1017 30.03 846 24.98 15.8 60.4 53 6.4 43.5
02:55 1017 30.03 846 24.98 15.7 60.2 54 6.4 43.5
03:00 1016 30 846 24.98 15.5 60 54 6.2 43.2
03:05 1016 30 846 24.98 15.6 60.1 53 6.3 43.3
03:10 1016 30 846 24.98 15.6 60.1 53 6.2 43.1
03:15 1016 30 846 24.98 15.6 60 54 6.3 43.3
03:20 1016 30 846 24.98 15.5 59.9 53 6.2 43.1
03:25 1016 30 846 24.98 15.6 60.1 53 6.1 43
03:30 1016 30 846 24.98 15.7 60.3 53 6.2 43.1
03:35 1016 30 845 24.95 15.7 60.2 53 6.2 43.1
03:40 1016 30 845 24.95 15.7 60.2 53 6.3 43.3
03:45 1016 30 845 24.95 15.7 60.2 53 6.3 43.3
03:50 1016 30 845 24.95 15.8 60.4 53 6.2 43.2
03:55 1016 30 845 24.95 15.7 60.3 53 6.3 43.3
04:00 1016 30 845 24.95 15.7 60.2 53 6.2 43.2
04:05 1016 30 845 24.95 15.6 60.1 53 6.2 43.1
04:10 1016 30 845 24.95 15.4 59.8 54 6.2 43.2
04:15 1016 30 845 24.95 15.4 59.7 53 6.1 42.9
04:20 1016 30 845 24.95 15.3 59.5 54 6.2 43.1
04:25 1016 30 845 24.95 15.1 59.1 56 6.4 43.5
04:30 1016 30 845 24.95 14.8 58.6 56 6.2 43.1
04:35 1016 30 845 24.95 14.8 58.6 55 6 42.8
04:40 1016 30 845 24.95 14.7 58.5 56 6.1 42.9
04:45 1016 30 845 24.95 14.6 58.2 57 6.1 43
04:50 1016 30 845 24.95 14.5 58.1 56 5.9 42.6
04:55 1016 30 845 24.95 14.5 58.2 56 5.8 42.5
05:00 1016 30 845 24.95 14.6 58.4 56 5.9 42.7
05:05 1016 30 845 24.95 14.5 58.2 56 5.8 42.5
05:10 1016 30 845 24.95 14.4 57.9 56 5.9 42.6
05:15 1016 30 845 24.95 14.5 58.1 55 5.5 42
05:20 1016 30 845 24.95 14.7 58.4 54 5.5 41.8
05:25 1016 30 845 24.95 14.9 58.8 53 5.4 41.7
05:30 1016 30 845 24.95 15 58.9 53 5.6 42
05:35 1016 30 845 24.95 15 58.9 53 5.5 41.8
05:40 1016 30 845 24.95 15 59 53 5.4 41.8
05:45 1015 29.97 845 24.95 15 59 52 5.4 41.6
05:50 1015 29.97 845 24.95 15.1 59.1 51 5.2 41.4
05:55 1015 29.97 845 24.95 15.3 59.5 51 5.4 41.6
06:00 1015 29.97 845 24.95 15.3 59.6 51 5.4 41.8
06:05 1015 29.97 845 24.95 15.3 59.6 51 5.4 41.7
06:10 1015 29.97 845 24.95 15.3 59.5 52 5.6 42.1
06:15 1015 29.97 845 24.95 15.3 59.5 52 5.6 42
06:20 1015 29.97 844 24.92 15.3 59.5 53 5.7 42.3
06:25 1015 29.97 844 24.92 15.3 59.6 51 5.3 41.6
06:30 1015 29.97 844 24.92 15.5 60 51 5.5 42
06:35 1015 29.97 844 24.92 15.6 60.1 50 5.4 41.7
06:40 1015 29.97 844 24.92 15.8 60.4 49 5.2 41.4
06:45 1015 29.97 844 24.92 16 60.8 49 5.4 41.6
06:50 1015 29.97 844 24.92 16.1 61 49 5.4 41.7
06:55 1015 29.97 844 24.92 16.1 60.9 49 5.4 41.7
07:00 1015 29.97 844 24.92 16.1 61 49 5.6 42
07:05 1015 29.97 844 24.92 16.3 61.3 49 5.6 42.1
07:10 1015 29.97 844 24.92 16.5 61.8 47 5.4 41.7
07:15 1015 29.97 844 24.92 16.8 62.2 47 5.5 41.9
07:20 1015 29.97 844 24.92 17 62.6 46 5.3 41.5
07:25 1015 29.97 844 24.92 17.1 62.8 47 5.7 42.3
07:30 1015 29.97 844 24.92 17.3 63.1 45 5.4 41.7
07:35 1015 29.97 844 24.92 17.4 63.4 52 7.6 45.6
07:40 1015 29.97 844 24.92 17 62.6 52 7.2 45
07:45 1015 29.97 844 24.92 17.3 63.2 49 6.5 43.8
07:50 1015 29.97 844 24.92 18 64.4 46 6.2 43.1
07:55 1015 29.97 844 24.92 18.3 65 43 5.6 42.1
08:00 1015 29.97 844 24.92 18.9 66.1 41 5.4 41.8
08:05 1015 29.97 844 24.92 19.4 66.9 38 5 40.9
08:10 1015 29.97 844 24.92 19.8 67.7 38 5.4 41.8
08:15 1014 29.94 844 24.92 20.1 68.2 36 4.9 40.8
08:20 1014 29.94 844 24.92 20.3 68.5 35 4.4 39.8
08:25 1014 29.94 844 24.92 20.4 68.8 34 4.4 39.8
08:30 1014 29.94 844 24.92 20.7 69.2 33 4 39.2
08:35 1014 29.94 843 24.89 20.9 69.6 34 4.5 40.1
08:40 1014 29.94 843 24.89 21 69.8 34 4.6 40.4
08:45 1014 29.94 843 24.89 20.9 69.7 38 6.4 43.5
08:50 1014 29.94 843 24.89 20.9 69.7 43 8.1 46.5
08:55 1014 29.94 843 24.89 20.4 68.7 47 8.8 47.8
09:00 1014 29.94 843 24.89 19.1 66.4 53 9.4 48.8
09:05 1014 29.94 843 24.89 18.9 66 51 8.8 47.8
09:10 1014 29.94 843 24.89 19.2 66.5 48 8.1 46.5
09:15 1014 29.94 843 24.89 20 68 48 8.9 48
09:20 1014 29.94 843 24.89 20.5 69 47 9 48.2
09:25 1014 29.94 843 24.89 20.9 69.6 48 9.5 49.1
09:30 1014 29.94 843 24.89 20.6 69.1 48 9.3 48.8
09:35 1014 29.94 843 24.89 20.5 69 47 8.9 48.1
09:40 1013 29.91 843 24.89 21 69.9 40 7 44.7
09:45 1013 29.91 843 24.89 21.8 71.3 38 7 44.6
09:50 1013 29.91 843 24.89 23 73.4 32 5.5 41.9
09:55 1013 29.91 842 24.86 23.8 74.9 31 5.8 42.4
10:00 1013 29.91 842 24.86 24.1 75.4 28 4.7 40.4
10:05 1013 29.91 842 24.86 24.5 76 28 4.9 40.9
10:10 1013 29.91 842 24.86 25 77 25 3.9 39.1
10:15 1013 29.91 842 24.86 25.2 77.3 24 3.7 38.7
10:20 1013 29.91 842 24.86 25.6 78 24 3.7 38.6
10:25 1013 29.91 842 24.86 25.7 78.3 22 2.9 37.3
10:30 1013 29.91 842 24.86 25.8 78.4 23 3.5 38.3
10:35 1013 29.91 842 24.86 26.1 79 23 3.9 39
10:40 1013 29.91 842 24.86 26.4 79.4 22 3.3 37.9
10:45 1012 29.88 842 24.86 27 80.5 15 -1.4 29.5
10:50 1012 29.88 842 24.86 27.4 81.3 14 -2.1 28.3
10:55 1012 29.88 842 24.86 27.3 81.2 16 -0.8 30.6
11:00 1012 29.88 841 24.83 27.6 81.7 19 2.4 36.3
11:05 1012 29.88 841 24.83 27.4 81.3 23 4.5 40.1
11:10 1012 29.88 841 24.83 26.8 80.3 23 4 39.3
11:15 1012 29.88 841 24.83 27.5 81.4 18 1.6 34.8
11:20 1012 29.88 841 24.83 28 82.4 14 -1.4 29.5
11:25 1012 29.88 841 24.83 28.3 83 14 -1.2 29.8
11:30 1012 29.88 841 24.83 28.5 83.3 14 -1.6 29.2
11:35 1012 29.88 841 24.83 28 82.3 15 -0.4 31.3
11:40 1012 29.88 841 24.83 28 82.5 14 -1.4 29.4
11:45 1012 29.88 841 24.83 27.9 82.2 14 -1.6 29.1
11:50 1012 29.88 841 24.83 27.8 82 15 -1.4 29.5
11:55 1011 29.85 841 24.83 28.1 82.5 15 -0.4 31.2
12:00 1011 29.85 841 24.83 28.3 82.9 14 -1.3 29.7
12:05 1011 29.85 841 24.83 28.2 82.8 15 -0.9 30.5
12:10 1011 29.85 840 24.81 28.3 82.9 14 -1 30.1
12:15 1011 29.85 840 24.81 28.1 82.7 14 -2 28.4
12:20 1011 29.85 840 24.81 28.5 83.2 14 -1.1 30
12:25 1011 29.85 840 24.81 28.6 83.4 15 0 32.1
12:30 1011 29.85 840 24.81 28.6 83.5 15 -0.3 31.4
12:35 1011 29.85 840 24.81 28.5 83.4 14 -1.4 29.4
12:40 1011 29.85 840 24.81 28.3 83 16 0.1 32.2
12:45 1011 29.85 840 24.81 28.6 83.5 15 0.1 32.2
12:50 1011 29.85 840 24.81 28.2 82.8 16 0.1 32.2
12:55 1011 29.85 840 24.81 27.9 82.2 17 0.7 33.3
13:00 1011 29.85 840 24.81 28.3 82.9 14 -1.3 29.6
13:05 1011 29.85 840 24.81 28.4 83.1 15 -0.7 30.8
13:10 1010 29.83 840 24.81 28.4 83.1 15 -0.2 31.6
13:15 1010 29.83 840 24.81 28.4 83.1 14 -1.8 28.7
13:20 1010 29.83 840 24.81 28.3 82.9 15 -0.5 31
13:25 1010 29.83 840 24.81 28.6 83.4 16 0.4 32.6
13:30 1010 29.83 839 24.78 29.1 84.3 12 -2.8 26.9
13:35 1010 29.83 839 24.78 29.4 84.8 12 -2.8 26.9
13:40 1010 29.83 839 24.78 29.4 84.8 12 -3.2 26.2
13:45 1010 29.83 839 24.78 29.3 84.7 12 -2.3 27.8
13:50 1010 29.83 839 24.78 28.9 84 12 -2.6 27.3
13:55 1010 29.83 839 24.78 29.2 84.5 12 -3.2 26.2
14:00 1010 29.83 839 24.78 29.5 85.1 11 -3.3 26
14:05 1010 29.83 839 24.78 29.7 85.4 12 -2.1 28.3
14:10 1009 29.8 839 24.78 29.1 84.3 12 -2.5 27.6
14:15 1009 29.8 839 24.78 29.3 84.7 13 -1.3 29.7
14:20 1009 29.8 839 24.78 29.1 84.3 13 -2 28.5
14:25 1009 29.8 838 24.75 28.9 84 14 -0.7 30.7
14:30 1009 29.8 838 24.75 29.6 85.4 13 -1.5 29.2
14:35 1009 29.8 838 24.75 29.4 84.9 13 -1.5 29.3
14:40 1009 29.8 838 24.75 29.6 85.2 13 -2 28.5
14:45 1009 29.8 838 24.75 29.5 85 12 -2.3 27.8
14:50 1009 29.8 838 24.75 29.2 84.5 13 -1.3 29.7
14:55 1009 29.8 838 24.75 28.8 83.8 13 -1.8 28.8
15:00 1009 29.8 838 24.75 28.9 83.9 13 -1.8 28.7
15:05 1009 29.8 838 24.75 28.8 83.8 12 -2.7 27.2
15:10 1009 29.8 838 24.75 28.8 83.9 12 -2.9 26.8
15:15 1009 29.8 838 24.75 29.2 84.5 12 -2.9 26.8
15:20 1009 29.8 838 24.75 29.5 85.1 13 -1.9 28.6
15:25 1008 29.77 838 24.75 29.1 84.4 12 -2.7 27.1
15:30 1008 29.77 838 24.75 29.1 84.3 13 -2.1 28.3
15:35 1008 29.77 838 24.75 29.3 84.7 13 -2.1 28.2
15:40 1008 29.77 838 24.75 29.6 85.2 12 -2.5 27.5
15:45 1008 29.77 837 24.72 29.9 85.8 12 -2.2 28
15:50 1008 29.77 837 24.72 29.7 85.5 12 -2 28.3
15:55 1008 29.77 837 24.72 29.3 84.8 12 -2.9 26.8
16:00 1008 29.77 837 24.72 29.7 85.5 11 -3.8 25.2
16:05 1008 29.77 837 24.72 30.1 86.3 12 -2.6 27.4
16:10 1008 29.77 837 24.72 30.3 86.5 12 -2.5 27.6
16:15 1008 29.77 837 24.72 30 86 12 -1.9 28.6
16:20 1008 29.77 837 24.72 29.6 85.3 10 -4.6 23.7
16:25 1008 29.77 837 24.72 29.7 85.5 10 -5.5 22.1
16:30 1008 29.77 837 24.72 29.9 85.8 9 -6.2 20.8
16:35 1008 29.77 837 24.72 29.8 85.7 10 -4.1 24.5
16:40 1008 29.77 837 24.72 29.7 85.5 10 -4.9 23.2
16:45 1008 29.77 837 24.72 29.7 85.5 10 -4.6 23.7
16:50 1008 29.77 837 24.72 29.7 85.5 10 -4.5 23.8
16:55 1008 29.77 837 24.72 29.6 85.3 10 -4.4 24
17:00 1008 29.77 837 24.72 29.6 85.2 10 -4.4 24.1
17:05 1008 29.77 837 24.72 29.9 85.8 10 -4.5 24
17:10 1008 29.77 837 24.72 29.8 85.7 10 -5.3 22.5
17:15 1008 29.77 837 24.72 29.9 85.8 11 -3.6 25.5
17:20 1008 29.77 837 24.72 29.9 85.9 11 -3.6 25.6
17:25 1008 29.77 837 24.72 29.5 85.1 10 -4.4 24.1
17:30 1008 29.77 837 24.72 29.5 85 10 -4.9 23.1
17:35 1008 29.77 837 24.72 29.7 85.5 10 -4.9 23.2
17:40 1008 29.77 837 24.72 29.8 85.7 11 -3.3 26.1
17:45 1008 29.77 837 24.72 29.7 85.5 12 -2.8 27
17:50 1008 29.77 837 24.72 29 84.2 11 -4.6 23.7
17:55 1008 29.77 837 24.72 28.9 83.9 12 -3.6 25.5
18:00 1008 29.77 837 24.72 28.7 83.7 11 -4.6 23.6
18:05 1008 29.77 837 24.72 28.6 83.5 12 -3.7 25.3
18:10 1008 29.77 837 24.72 28.6 83.6 12 -3.8 25.2
18:15 1008 29.77 837 24.72 28.7 83.7 11 -4.8 23.3
18:20 1008 29.77 837 24.72 28.6 83.5 11 -4.4 24
18:25 1008 29.77 837 24.72 28.5 83.3 11 -4.5 23.9
18:30 1008 29.77 837 24.72 28.7 83.6 12 -2.9 26.9
18:35 1008 29.77 837 24.72 28.8 83.8 12 -2.6 27.3
18:40 1008 29.77 837 24.72 28.4 83 13 -2.3 27.9
18:45 1008 29.77 837 24.72 28.5 83.3 14 -1.7 28.9
18:50 1008 29.77 837 24.72 28.4 83.1 15 -0.6 30.9
18:55 1008 29.77 837 24.72 28 82.4 15 -0.9 30.4
19:00 1008 29.77 837 24.72 28 82.4 15 -0.7 30.8
19:05 1008 29.77 837 24.72 28.1 82.5 15 -0.4 31.3
19:10 1008 29.77 837 24.72 28 82.5 14 -1.3 29.7
19:15 1008 29.77 837 24.72 28.2 82.8 16 0.1 32.2
19:20 1008 29.77 837 24.72 27.8 82.1 17 0.6 33
19:25 1008 29.77 837 24.72 27.4 81.4 16 -0 31.9
19:30 1008 29.77 837 24.72 27.3 81.2 14 -1.8 28.8
19:35 1007 29.74 837 24.72 27.3 81.2 15 -0.9 30.4
19:40 1007 29.74 837 24.72 27.4 81.3 16 -0.7 30.7
19:45 1007 29.74 837 24.72 27.2 81 16 -0.4 31.2
19:50 1007 29.74 836 24.69 26.8 80.3 17 -0.2 31.7
19:55 1007 29.74 836 24.69 26.7 80.1 15 -1.8 28.8
20:00 1007 29.74 836 24.69 26.7 80.1 16 -1.3 29.6
20:05 1007 29.74 836 24.69 26.7 80 18 0.5 33
20:10 1007 29.74 836 24.69 26.1 79 19 0.9 33.7
20:15 1007 29.74 836 24.69 26 78.7 20 1.8 35.2
20:20 1007 29.74 836 24.69 25.8 78.5 18 -0.1 31.9
20:25 1007 29.74 836 24.69 25.8 78.4 19 0.7 33.3
20:30 1007 29.74 836 24.69 25.6 78.1 22 2.7 36.8
20:35 1007 29.74 836 24.69 25.4 77.7 20 0.8 33.5
20:40 1007 29.74 836 24.69 25.4 77.6 20 1 33.8
20:45 1007 29.74 836 24.69 24.9 76.8 18 -1 30.2
20:50 1006 29.71 836 24.69 25.3 77.5 17 -1.7 29
20:55 1006 29.71 836 24.69 25.1 77.2 23 2.7 36.9
21:00 1006 29.71 836 24.69 23.8 74.8 23 1.9 35.3
21:05 1007 29.74 836 24.69 23.3 73.9 25 2.4 36.3
21:10 1007 29.74 836 24.69 23.1 73.5 20 -0.6 30.9
21:15 1007 29.74 836 24.69 23.7 74.7 21 -0 32
21:20 1006 29.71 836 24.69 23.8 74.9 20 -0.1 31.8
21:25 1006 29.71 836 24.69 23.7 74.6 21 0.3 32.6
21:30 1006 29.71 836 24.69 22.7 72.9 24 1.1 34.1
21:35 1006 29.71 836 24.69 21.8 71.2 25 0.8 33.5
21:40 1006 29.71 836 24.69 21.2 70.2 24 0.3 32.5
21:45 1006 29.71 836 24.69 21 69.9 25 0.3 32.6
21:50 1006 29.71 836 24.69 20.9 69.6 26 0.7 33.2
21:55 1006 29.71 836 24.69 20.6 69 27 1 33.8
22:00 1006 29.71 835 24.66 20.6 69 25 0.1 32.1
22:05 1006 29.71 835 24.66 20.7 69.3 25 0.2 32.4
22:10 1006 29.71 835 24.66 20.6 69 25 -0.2 31.7
22:15 1006 29.71 835 24.66 20.5 68.9 24 -0.3 31.4
22:20 1006 29.71 835 24.66 20.6 69.1 24 -0.5 31.2
22:25 1006 29.71 835 24.66 20.3 68.6 26 0.3 32.5
22:30 1006 29.71 835 24.66 20.1 68.1 26 0.2 32.3
22:35 1006 29.71 835 24.66 19.7 67.5 29 1.4 34.5
22:40 1006 29.71 835 24.66 19.4 66.9 27 0.2 32.4
22:45 1006 29.71 835 24.66 19.6 67.3 27 0 32
22:50 1006 29.71 835 24.66 19.9 67.8 26 0.3 32.5
22:55 1006 29.71 835 24.66 19.8 67.7 27 0.3 32.6
23:00 1006 29.71 835 24.66 19.7 67.4 27 0.5 33
23:05 1005 29.68 835 24.66 19.7 67.4 28 0.7 33.2
23:10 1005 29.68 834 24.63 19.8 67.6 26 -0.3 31.5
23:15 1005 29.68 834 24.63 20 68 26 0.3 32.6
23:20 1005 29.68 834 24.63 19.8 67.6 26 -0 31.9
23:25 1005 29.68 834 24.63 20 67.9 26 -0.1 31.8
23:30 1005 29.68 834 24.63 20.3 68.5 24 -0.8 30.6
23:35 1005 29.68 834 24.63 20.8 69.5 24 -0.5 31.1
23:40 1005 29.68 834 24.63 20.7 69.2 24 -0.4 31.2
23:45 1004 29.65 834 24.63 20.6 69.1 25 -0.1 31.9
23:50 1004 29.65 834 24.63 20.4 68.6 25 0.1 32.2
23:55 1004 29.65 833 24.6 20.2 68.3 26 0.4 32.7
24:00 1004 29.65 834 24.63 19.7 67.5 28 0.9 33.5